Aérodrome :
LOGIN :

S'inscrire | Disclaimer

   EN    FR    IT 

 










Légende :    VFR   VFR Marginal   IFR   IFR Intensif   IFR Très Intensif
Visi : 
Plafond : 
>= 8 km
>= 3000ft
5 à 8 km
1000 à 3000 ft
1500m à 5 km
500 à 1000 ft
800 à 1500m
200 à 500 ft
< 800m
< 200 ft
Symboles :   Orages  Brouillard  Fortes neiges  Fortes précipitations  Vent > 20 kt
SIGMETs :   Divers  Orages  Givrage  Turbulence  Onde Orograph.  Cendres Volcan.






- Altitude de l'aérodrome : 302 ft
- Code IATA : CGN


EDDK - Cologne Bonn

DERNIER METAR :
  • 240050Z 13007KT 090V160 9999 OVC011 01/M01 Q1025 NOSIG

METARs EXPIRÉS :
  • 240020Z 13007KT 090V160 9999 BKN011 00/M01 Q1025 NOSIG
  • 232350Z 13006KT 070V150 9999 BKN011 00/M01 Q1026 NOSIG
  • 232320Z 13007KT 9999 BKN011 00/M01 Q1026 NOSIG
  • 232250Z 12006KT 080V150 9999 BKN012 M00/M01 Q1026 NOSIG

TAF TAF EDDK
Valide du 24 à 00h jusqu'au 25 à 06h UTC


232300Z 2400/2506 VRB03KT 9999 BKN012
TEMPO 2400/2410 4000 BR BKN008
BECMG 2410/2413 BKN015
BECMG 2419/2422 BKN012
PROB30
TEMPO 2421/2506 4000 BR BKN008



MET'MAP, la Météo Aéronautique d'un coup d'oeil ! - Copyright ORBIFLY Décembre 2007 - Disclaimer

ORBIFLY MET'MAP TEAM :

Programmation & Développement : Alexandra Zaïnal
Sur une idée originale de : Baudouin d'Aumeries
Assistance à la programmation : Marc-Olivier Méhu
Soutien technique & logistique : Manuel Goepfert

Contact : metmap@orbifly.com




SOURCES & CREDITS :

   NOAA